Time;durP1;ratioP1;P1;durP2;ratioP2;P2;SDS_P1;SDS_P2;PMS_P1;PMS_P2;Temp;Humidity;BMP_temperature;BMP_pressure;BME280_temperature;BME280_humidity;BME280_pressure;Samples;Min_cycle;Max_cycle;Signal;HPM_P1;HPM_P2
2021/03/17 00:01:10;;;;;;;1.03;0.90;;;;;;;17.37;36.66;101175.28;5019202;28;20155;-65
2021/03/17 00:03:36;;;;;;;2.20;0.87;;;;;;;17.46;36.47;101197.97;5007756;28;20049;-65
2021/03/17 00:06:03;;;;;;;3.23;1.07;;;;;;;17.25;36.85;101189.88;5014516;28;20136;-63
2021/03/17 00:08:30;;;;;;;1.27;0.90;;;;;;;17.17;37.18;101184.13;5019380;28;20479;-63
2021/03/17 00:10:56;;;;;;;1.37;0.97;;;;;;;17.09;37.08;101193.28;5020328;28;20129;-63
2021/03/17 00:13:26;;;;;;;4.27;1.17;;;;;;;16.99;36.79;101189.53;5015127;28;20073;-63
2021/03/17 00:15:56;;;;;;;0.33;0.33;;;;;;;16.96;36.97;101169.56;5018023;28;20498;-65
2021/03/17 00:18:23;;;;;;;1.00;0.70;;;;;;;16.91;37.17;101169.63;5015722;28;20042;-68
2021/03/17 00:20:50;;;;;;;3.33;1.07;;;;;;;16.86;37.17;101172.56;5013698;28;20053;-69
2021/03/17 00:23:18;;;;;;;2.17;0.90;;;;;;;16.86;36.94;101175.38;5017311;28;20395;-68
2021/03/17 00:25:45;;;;;;;0.40;0.40;;;;;;;16.78;37.36;101189.00;5020397;28;20077;-65
2021/03/17 00:28:12;;;;;;;2.00;0.60;;;;;;;16.80;36.99;101174.59;5019828;28;20094;-68
2021/03/17 00:30:40;;;;;;;0.80;0.80;;;;;;;16.84;36.71;101160.72;5016399;28;20052;-68
2021/03/17 00:33:13;;;;;;;0.52;0.52;;;;;;;16.71;36.85;101165.97;5020614;28;20057;-70
2021/03/17 00:35:40;;;;;;;0.50;0.50;;;;;;;16.90;36.82;101179.25;5014796;28;20398;-67
2021/03/17 00:38:06;;;;;;;0.60;0.50;;;;;;;16.69;36.70;101159.81;5015052;28;20049;-68
2021/03/17 00:40:35;;;;;;;0.53;0.47;;;;;;;16.85;36.86;101170.84;5013607;28;20076;-66
2021/03/17 00:43:02;;;;;;;2.83;1.07;;;;;;;16.95;36.63;101176.31;5016856;28;20137;-67
2021/03/17 00:45:29;;;;;;;0.60;0.50;;;;;;;17.09;36.41;101168.72;5018587;28;20305;-67
2021/03/17 00:47:56;;;;;;;2.63;0.80;;;;;;;16.90;36.77;101167.97;5017479;28;20049;-67
2021/03/17 00:50:23;;;;;;;1.23;0.57;;;;;;;16.97;36.46;101168.41;5014876;28;20046;-68
2021/03/17 00:52:52;;;;;;;;;;;;;;;16.65;37.15;101163.53;5014161;28;20582;-67
2021/03/17 00:55:21;;;;;;;1.27;0.80;;;;;;;16.64;37.19;101159.03;5019958;28;20417;-67
2021/03/17 00:57:48;;;;;;;4.93;1.10;;;;;;;16.66;37.34;101173.69;5020767;28;20045;-68
2021/03/17 01:00:16;;;;;;;2.27;1.10;;;;;;;16.77;37.02;101147.84;5016297;28;20044;-66
2021/03/17 01:02:43;;;;;;;0.57;0.43;;;;;;;16.63;37.26;101161.03;5018714;28;20049;-66
2021/03/17 01:05:09;;;;;;;1.57;0.80;;;;;;;16.63;37.33;101168.66;5014431;28;20128;-67
2021/03/17 01:07:36;;;;;;;1.37;0.83;;;;;;;16.64;37.40;101164.69;5017426;28;20053;-67
2021/03/17 01:10:17;;;;;;;2.50;1.47;;;;;;;16.57;37.58;101171.53;5019573;28;20053;-65
2021/03/17 01:12:43;;;;;;;2.47;1.60;;;;;;;16.54;37.26;101174.13;5019813;28;20060;-65
2021/03/17 01:15:17;;;;;;;1.93;0.87;;;;;;;16.55;37.42;101161.72;5012995;28;20081;-69
2021/03/17 01:17:44;;;;;;;0.50;0.37;;;;;;;16.48;37.43;101166.91;5015675;28;20479;-66
2021/03/17 01:20:12;;;;;;;1.03;0.70;;;;;;;16.54;37.49;101160.03;5016132;28;20042;-65
2021/03/17 01:22:38;;;;;;;0.97;0.70;;;;;;;16.52;37.50;101162.34;5017737;28;20057;-66
2021/03/17 01:25:13;;;;;;;2.00;0.90;;;;;;;15.94;37.54;101101.47;5017437;28;20045;-63
2021/03/17 01:27:39;;;;;;;0.40;0.33;;;;;;;16.43;37.46;101164.16;5013437;28;20399;-66
2021/03/17 01:30:07;;;;;;;2.53;0.70;;;;;;;16.27;37.56;101141.88;5019039;28;20056;-68
2021/03/17 01:32:34;;;;;;;3.53;0.93;;;;;;;16.25;37.71;101138.50;5013557;28;20396;-67
2021/03/17 01:35:04;;;;;;;0.90;0.80;;;;;;;16.30;37.59;101144.03;5020799;28;20056;-67
2021/03/17 01:37:30;;;;;;;3.40;0.80;;;;;;;16.51;37.40;101160.66;5014415;28;20045;-66
2021/03/17 01:39:56;;;;;;;5.80;1.20;;;;;;;16.52;37.27;101151.06;5013436;28;20136;-67
2021/03/17 01:42:23;;;;;;;0.83;0.70;;;;;;;16.56;37.37;101157.75;5018106;28;20085;-71
2021/03/17 01:45:08;;;;;;;4.07;1.00;;;;;;;16.26;37.48;101128.88;5022331;28;20049;-71
2021/03/17 01:47:36;;;;;;;6.40;1.53;;;;;;;16.24;37.67;101130.34;5018057;28;20402;-71
2021/03/17 01:50:07;;;;;;;0.97;0.70;;;;;;;16.37;37.40;101149.31;5020036;28;20136;-71
2021/03/17 01:52:35;;;;;;;1.23;0.83;;;;;;;16.25;37.83;101146.94;5014354;28;20140;-69
2021/03/17 01:55:03;;;;;;;1.50;0.80;;;;;;;16.25;38.27;101158.22;5016989;28;20049;-71
2021/03/17 01:57:30;;;;;;;1.50;1.00;;;;;;;16.25;37.93;101146.13;5016564;28;20145;-69
2021/03/17 01:59:56;;;;;;;1.33;0.80;;;;;;;16.11;37.97;101137.59;5013611;28;20388;-74
2021/03/17 02:02:23;;;;;;;5.83;1.20;;;;;;;16.14;38.40;101170.78;5015289;28;20128;-71
2021/03/17 02:04:50;;;;;;;0.53;0.40;;;;;;;16.13;38.46;101171.91;5013992;28;20053;-76
2021/03/17 02:07:16;;;;;;;3.27;1.10;;;;;;;16.05;38.82;101166.97;5021768;28;20045;-79
2021/03/17 02:09:42;;;;;;;1.47;0.83;;;;;;;15.85;38.87;101132.28;5019944;28;20558;-78
2021/03/17 02:12:15;;;;;;;1.97;1.20;;;;;;;16.05;38.83;101156.53;5011480;28;20046;-71
2021/03/17 02:15:11;;;;;;;2.20;0.70;;;;;;;15.97;39.01;101150.75;5018333;28;20041;-69
2021/03/17 02:17:42;;;;;;;1.00;0.50;;;;;;;15.83;39.01;101134.59;5011753;28;20097;-66
2021/03/17 02:20:34;;;;;;;5.33;1.00;;;;;;;15.68;39.53;101137.59;5013726;28;20064;-66
2021/03/17 02:23:37;;;;;;;2.90;1.07;;;;;;;15.56;40.15;101139.97;5014659;28;20038;-67
2021/03/17 02:26:29;;;;;;;0.77;0.70;;;;;;;15.54;40.17;101145.88;5011530;28;20041;-66
2021/03/17 02:29:10;;;;;;;2.17;0.90;;;;;;;15.53;40.15;101132.97;5013063;28;20046;-68
2021/03/17 02:31:53;;;;;;;8.90;1.90;;;;;;;15.44;40.48;101147.97;5018118;28;20132;-71
2021/03/17 02:34:24;;;;;;;7.87;0.93;;;;;;;15.36;40.36;101132.59;5017621;28;20054;-67
2021/03/17 02:37:04;;;;;;;0.20;0.20;;;;;;;15.27;40.59;101137.19;5018202;28;20132;-67
2021/03/17 02:40:04;;;;;;;3.83;1.17;;;;;;;15.29;40.74;101140.56;5014009;28;20131;-65
2021/03/17 02:43:23;;;;;;;0.53;0.47;;;;;;;15.39;40.59;101137.63;5013724;28;20046;-63
2021/03/17 02:45:55;;;;;;;0.90;0.53;;;;;;;15.24;40.70;101121.72;4962845;28;20148;-65
2021/03/17 02:48:31;;;;;;;1.00;0.63;;;;;;;15.26;40.98;101144.78;5013217;28;20081;-63
2021/03/17 02:51:10;;;;;;;1.77;0.80;;;;;;;15.28;40.95;101148.16;5022102;28;20049;-63
2021/03/17 02:53:38;;;;;;;1.70;0.60;;;;;;;15.30;40.80;101137.44;5021272;28;20081;-63
2021/03/17 02:56:09;;;;;;;0.70;0.70;;;;;;;15.23;41.20;101148.19;5020229;28;20081;-64
2021/03/17 02:58:41;;;;;;;1.77;0.80;;;;;;;15.16;41.12;101145.75;5022876;28;20045;-66
2021/03/17 03:01:11;;;;;;;1.17;0.80;;;;;;;15.23;41.14;101131.31;5022644;28;20046;-65
2021/03/17 03:03:39;;;;;;;;;;;;;;;15.14;41.29;101139.59;5019835;28;20049;-65
2021/03/17 03:06:07;;;;;;;1.07;0.53;;;;;;;15.14;41.24;101121.84;5015593;28;19927;-64
2021/03/17 03:08:36;;;;;;;1.77;0.80;;;;;;;15.25;41.03;101139.47;5019321;28;20486;-62
2021/03/17 03:11:05;;;;;;;1.02;0.65;;;;;;;15.08;41.51;101145.56;5016783;28;20053;-64
2021/03/17 03:13:32;;;;;;;4.47;1.13;;;;;;;14.97;41.49;101127.91;5017037;28;20097;-62
2021/03/17 03:16:15;;;;;;;0.37;0.33;;;;;;;14.92;41.91;101134.44;5020213;28;20414;-61
2021/03/17 03:18:45;;;;;;;1.87;0.60;;;;;;;14.88;42.02;101132.53;5022437;28;20054;-63
2021/03/17 03:21:19;;;;;;;0.77;0.53;;;;;;;14.92;41.82;101126.00;5013866;28;20195;-64
2021/03/17 03:23:47;;;;;;;1.43;0.80;;;;;;;15.04;41.65;101141.63;5015449;28;20473;-63
2021/03/17 03:26:17;;;;;;;2.27;0.70;;;;;;;14.85;42.07;101131.13;5022520;28;20128;-62
2021/03/17 03:28:47;;;;;;;0.50;0.50;;;;;;;14.96;41.94;101136.66;5020827;28;20407;-64
2021/03/17 03:31:13;;;;;;;1.30;0.80;;;;;;;14.94;41.81;101131.34;5016468;28;20137;-63
2021/03/17 03:33:40;;;;;;;0.20;0.20;;;;;;;14.92;42.05;101142.88;5018224;28;20052;-68
2021/03/17 03:36:06;;;;;;;1.87;1.10;;;;;;;14.92;41.98;101148.50;5021692;28;20049;-69
2021/03/17 03:38:33;;;;;;;1.90;0.90;;;;;;;14.88;42.44;101144.63;5019214;28;20046;-71
2021/03/17 03:40:59;;;;;;;1.13;0.47;;;;;;;14.99;41.86;101150.13;5014493;28;20053;-68
2021/03/17 03:43:27;;;;;;;0.30;0.30;;;;;;;14.90;41.86;101139.50;5018733;28;20564;-68
2021/03/17 03:45:54;;;;;;;2.93;0.93;;;;;;;14.93;41.97;101136.09;5023650;28;20136;-69
2021/03/17 03:48:22;;;;;;;0.83;0.50;;;;;;;14.80;42.19;101144.38;5017725;28;20061;-66
2021/03/17 03:50:51;;;;;;;0.83;0.67;;;;;;;14.75;42.20;101147.25;5015918;28;20049;-67
2021/03/17 03:53:29;;;;;;;0.30;0.30;;;;;;;14.80;42.11;101139.63;5030856;28;20059;-66
2021/03/17 03:56:02;;;;;;;1.00;0.77;;;;;;;14.75;42.40;101141.63;5023109;28;20046;-66
2021/03/17 03:58:32;;;;;;;1.07;0.40;;;;;;;14.63;42.68;101140.06;5015879;28;20045;-66
2021/03/17 04:01:08;;;;;;;0.93;0.53;;;;;;;14.41;42.70;101094.66;5016625;28;20141;-63
2021/03/17 04:03:37;;;;;;;0.40;0.40;;;;;;;14.50;42.85;101156.72;5016435;28;20471;-65
2021/03/17 04:06:05;;;;;;;1.58;0.40;;;;;;;14.67;42.63;101135.53;5015592;28;20050;-63
2021/03/17 04:08:35;;;;;;;0.50;0.40;;;;;;;14.78;42.26;101130.66;5019398;28;20049;-66
2021/03/17 04:11:01;;;;;;;2.55;0.60;;;;;;;14.74;42.46;101138.00;5016064;28;20140;-72
2021/03/17 04:13:32;;;;;;;2.00;0.80;;;;;;;14.92;41.91;101142.88;5020176;28;20068;-68
2021/03/17 04:16:00;;;;;;;0.73;0.30;;;;;;;14.74;42.23;101128.72;5014763;28;20091;-69
2021/03/17 04:18:33;;;;;;;1.07;0.80;;;;;;;14.81;42.28;101143.28;5018900;28;20147;-70
2021/03/17 04:21:07;;;;;;;2.37;1.30;;;;;;;14.79;42.15;101129.50;5014614;28;20499;-69
2021/03/17 04:23:37;;;;;;;2.83;0.80;;;;;;;14.39;42.14;101054.75;5002125;28;20050;-68
2021/03/17 04:26:05;;;;;;;0.63;0.63;;;;;;;14.73;42.40;101139.09;5025541;28;20049;-67
2021/03/17 04:28:34;;;;;;;1.60;0.70;;;;;;;14.52;42.46;101118.75;5021738;28;20406;-67
2021/03/17 04:31:02;;;;;;;1.23;0.60;;;;;;;14.59;42.35;101121.25;5017317;28;20054;-67
2021/03/17 04:33:30;;;;;;;0.60;0.50;;;;;;;14.51;42.46;101130.31;5021808;28;20053;-65
2021/03/17 04:35:59;;;;;;;3.57;0.70;;;;;;;14.67;42.34;101129.91;5017167;28;20045;-73
2021/03/17 04:38:28;;;;;;;2.22;0.70;;;;;;;14.83;41.86;101136.22;5015986;28;20736;-74
2021/03/17 04:40:56;;;;;;;0.30;0.30;;;;;;;14.85;41.80;101147.19;5021376;28;20479;-68
2021/03/17 04:43:23;;;;;;;2.20;0.60;;;;;;;14.82;41.96;101145.78;5019011;28;20080;-68
2021/03/17 04:45:51;;;;;;;0.43;0.43;;;;;;;15.07;41.41;101132.59;5018623;28;20138;-67
2021/03/17 04:48:18;;;;;;;0.87;0.60;;;;;;;15.00;41.49;101140.56;5015529;28;20100;-68
2021/03/17 04:50:47;;;;;;;1.03;0.50;;;;;;;14.87;41.54;101123.25;5017014;28;20041;-66
2021/03/17 04:53:14;;;;;;;1.70;1.23;;;;;;;15.03;41.27;101143.63;5015790;28;20584;-67
2021/03/17 04:55:41;;;;;;;0.93;0.67;;;;;;;15.05;41.09;101120.84;5020606;28;20482;-65
2021/03/17 04:58:13;;;;;;;5.33;0.83;;;;;;;15.02;41.12;101136.31;5025025;28;20049;-66
2021/03/17 05:00:42;;;;;;;1.90;0.57;;;;;;;14.65;40.83;101063.84;5019005;28;20038;-70
2021/03/17 05:03:11;;;;;;;3.72;0.90;;;;;;;14.88;41.18;101118.47;5022849;28;20041;-64
2021/03/17 05:05:39;;;;;;;5.93;1.00;;;;;;;14.72;40.93;101080.38;5014214;28;20096;-65
2021/03/17 05:08:08;;;;;;;4.63;0.70;;;;;;;15.23;40.67;101148.19;5019238;28;20042;-64
2021/03/17 05:10:37;;;;;;;1.23;0.93;;;;;;;15.14;40.77;101145.22;5023041;28;20506;-63
2021/03/17 05:13:08;;;;;;;2.17;0.60;;;;;;;15.17;40.66;101149.38;5022245;28;20061;-67
2021/03/17 05:15:36;;;;;;;1.53;0.70;;;;;;;15.18;40.43;101151.09;5014390;28;20571;-68
2021/03/17 05:18:05;;;;;;;2.50;0.80;;;;;;;15.11;40.45;101139.31;5017304;28;20061;-68
2021/03/17 05:20:33;;;;;;;1.57;0.77;;;;;;;15.26;40.17;101158.88;5013165;28;20401;-69
2021/03/17 05:23:01;;;;;;;1.10;0.70;;;;;;;15.25;40.28;101140.31;5014685;28;20046;-68
2021/03/17 05:25:31;;;;;;;0.50;0.50;;;;;;;15.30;39.85;101147.84;5016943;28;20397;-66
2021/03/17 05:28:06;;;;;;;2.40;0.90;;;;;;;15.32;39.77;101154.88;5022795;28;20049;-69
2021/03/17 05:30:38;;;;;;;3.57;0.97;;;;;;;15.14;39.67;101133.97;5018965;28;20056;-68
2021/03/17 05:33:08;;;;;;;1.90;0.83;;;;;;;15.40;39.69;101153.38;5016414;28;20438;-67
2021/03/17 05:35:37;;;;;;;2.70;1.00;;;;;;;15.29;39.85;101143.38;5016693;28;20041;-68
2021/03/17 05:38:05;;;;;;;1.27;0.77;;;;;;;14.81;39.75;101067.38;5018253;28;20045;-71
2021/03/17 05:40:32;;;;;;;1.53;0.87;;;;;;;15.36;40.00;101174.81;5016708;28;20045;-68
2021/03/17 05:43:00;;;;;;;1.30;1.00;;;;;;;15.32;40.04;101168.94;5018542;28;20140;-68
2021/03/17 05:45:27;;;;;;;1.27;0.77;;;;;;;15.29;40.00;101169.53;5021426;28;20065;-68
2021/03/17 05:48:08;;;;;;;3.72;0.82;;;;;;;15.22;39.92;101163.41;5017056;28;20049;-70
2021/03/17 05:50:36;;;;;;;1.37;0.80;;;;;;;15.08;39.94;101140.78;5021114;28;20049;-68
2021/03/17 05:53:05;;;;;;;1.77;0.67;;;;;;;15.03;39.87;101148.41;5011716;28;20081;-67
2021/03/17 05:55:32;;;;;;;1.00;0.60;;;;;;;14.94;40.08;101156.66;5018199;28;20046;-66
2021/03/17 05:57:59;;;;;;;0.83;0.60;;;;;;;15.03;39.70;101170.91;5012862;28;20136;-69
2021/03/17 06:00:26;;;;;;;3.50;1.00;;;;;;;14.84;39.59;101135.09;5012257;28;20060;-69
2021/03/17 06:02:54;;;;;;;1.20;1.00;;;;;;;14.95;39.54;101163.97;5014077;28;20077;-68
2021/03/17 06:05:23;;;;;;;2.77;0.90;;;;;;;14.99;39.53;101155.78;5015710;28;20038;-70
2021/03/17 06:07:52;;;;;;;0.83;0.70;;;;;;;15.05;39.45;101163.03;5022566;28;20486;-65
2021/03/17 06:10:19;;;;;;;0.73;0.60;;;;;;;15.09;39.40;101141.59;5012283;28;21072;-65
2021/03/17 06:12:54;;;;;;;1.97;0.60;;;;;;;15.20;39.27;101157.22;5013651;28;20100;-65
2021/03/17 06:15:22;;;;;;;1.63;0.77;;;;;;;15.17;39.27;101155.00;5019656;28;20053;-66
2021/03/17 06:17:55;;;;;;;1.43;0.90;;;;;;;15.15;39.35;101151.69;5014747;28;20451;-66
2021/03/17 06:20:22;;;;;;;0.60;0.50;;;;;;;15.17;39.36;101166.25;5014665;28;20136;-65
2021/03/17 06:22:49;;;;;;;1.27;0.60;;;;;;;15.10;39.41;101165.78;5020870;28;20046;-64
2021/03/17 06:25:16;;;;;;;0.57;0.50;;;;;;;15.02;39.38;101152.38;5015378;28;20053;-73
2021/03/17 06:27:43;;;;;;;1.23;0.60;;;;;;;15.17;39.23;101160.63;5024021;28;20049;-80
2021/03/17 06:30:12;;;;;;;0.73;0.70;;;;;;;15.19;39.16;101151.91;5019748;28;20042;-69
2021/03/17 06:32:39;;;;;;;1.60;0.80;;;;;;;15.16;39.36;101161.78;5021797;28;20057;-67
2021/03/17 06:35:24;;;;;;;2.50;0.90;;;;;;;15.06;39.45;101159.91;5027337;28;20045;-76
2021/03/17 06:38:00;;;;;;;1.23;0.87;;;;;;;14.89;39.45;101148.25;5019469;28;20050;-67
2021/03/17 06:40:35;;;;;;;0.40;0.30;;;;;;;14.74;39.56;101154.88;5021408;28;20133;-76
2021/03/17 06:43:04;;;;;;;2.67;1.33;;;;;;;14.92;39.33;101165.38;5021729;28;20045;-69
2021/03/17 06:45:38;;;;;;;1.07;0.50;;;;;;;14.90;39.39;101159.19;5020184;28;20037;-57
2021/03/17 06:48:24;;;;;;;0.57;0.47;;;;;;;14.95;39.31;101163.13;5024343;28;20059;-59
2021/03/17 06:51:14;;;;;;;1.10;0.60;;;;;;;14.87;39.20;101167.38;5020031;28;20205;-60
2021/03/17 06:53:51;;;;;;;;;;;;;;;15.12;38.89;101169.16;5016036;28;20075;-63
2021/03/17 06:56:26;;;;;;;0.77;0.53;;;;;;;15.13;39.02;101176.44;5017897;28;19921;-68
2021/03/17 06:59:07;;;;;;;1.07;0.37;;;;;;;14.93;38.92;101149.34;5023951;28;20137;-60
2021/03/17 07:01:42;;;;;;;0.20;0.20;;;;;;;15.05;39.27;101174.28;5022034;28;20158;-59
2021/03/17 07:04:17;;;;;;;0.73;0.50;;;;;;;14.90;39.50;101178.88;5016133;28;20045;-62
2021/03/17 07:06:48;;;;;;;0.63;0.60;;;;;;;14.83;39.78;101171.94;5025133;28;20154;-59
2021/03/17 07:09:19;;;;;;;0.43;0.43;;;;;;;14.93;39.65;101189.53;5017661;28;20129;-60
2021/03/17 07:11:48;;;;;;;1.43;0.40;;;;;;;14.95;39.57;101191.25;5016321;28;20068;-60
2021/03/17 07:14:15;;;;;;;0.40;0.40;;;;;;;15.10;39.30;101182.66;5024084;28;20128;-59
2021/03/17 07:16:46;;;;;;;1.47;0.67;;;;;;;15.10;39.69;101188.28;5018908;28;20195;-60
2021/03/17 07:19:40;;;;;;;0.70;0.70;;;;;;;15.43;38.89;101196.97;5021995;28;20046;-59
2021/03/17 07:22:14;;;;;;;1.00;0.70;;;;;;;15.76;38.53;101198.88;5016134;28;20072;-59
2021/03/17 07:24:54;;;;;;;0.33;0.33;;;;;;;15.99;38.18;101196.34;5020468;28;20135;-60
2021/03/17 07:27:23;;;;;;;0.20;0.20;;;;;;;16.03;37.91;101183.31;5015279;28;20054;-59
2021/03/17 07:29:58;;;;;;;1.07;0.87;;;;;;;16.31;37.68;101207.75;5018961;28;20049;-59
2021/03/17 07:33:06;;;;;;;1.00;0.60;;;;;;;16.50;37.06;101184.34;5022061;28;20053;-60
2021/03/17 07:35:35;;;;;;;3.43;0.67;;;;;;;16.79;36.84;101196.34;5017351;28;20100;-59
2021/03/17 07:38:09;;;;;;;1.95;0.77;;;;;;;16.99;36.44;101206.44;5016582;28;20055;-59
2021/03/17 07:40:38;;;;;;;2.77;0.90;;;;;;;17.29;36.06;101204.22;5014401;28;20134;-59
2021/03/17 07:43:08;;;;;;;2.70;1.47;;;;;;;17.74;35.62;101211.00;5021862;28;20057;-59
2021/03/17 07:45:35;;;;;;;0.67;0.60;;;;;;;18.14;35.25;101202.84;5016890;28;20165;-59
2021/03/17 07:48:07;;;;;;;1.63;0.70;;;;;;;18.42;34.69;101214.94;5014265;28;20050;-59
2021/03/17 07:50:36;;;;;;;0.53;0.53;;;;;;;18.64;33.99;101202.84;5029835;28;20045;-59
2021/03/17 07:53:06;;;;;;;1.03;0.70;;;;;;;18.81;34.00;101205.03;5016008;28;20057;-60
2021/03/17 07:55:39;;;;;;;1.42;0.70;;;;;;;19.15;33.36;101204.44;5018137;28;20156;-61
2021/03/17 07:58:06;;;;;;;0.60;0.43;;;;;;;19.07;33.11;101201.53;5015181;28;20128;-60
2021/03/17 08:00:34;;;;;;;0.52;0.52;;;;;;;19.33;33.02;101202.56;5020083;28;20050;-58
2021/03/17 08:03:01;;;;;;;1.90;0.70;;;;;;;19.80;32.91;101210.66;5019013;28;20054;-58
2021/03/17 08:05:29;;;;;;;0.98;0.60;;;;;;;20.14;32.34;101212.78;5018140;28;20045;-58
2021/03/17 08:07:56;;;;;;;2.28;0.70;;;;;;;19.97;31.51;101185.22;5017501;28;20053;-59
2021/03/17 08:10:23;;;;;;;0.52;0.50;;;;;;;20.04;31.80;101215.91;5012497;28;20133;-58
2021/03/17 08:12:50;;;;;;;0.80;0.60;;;;;;;20.01;31.56;101200.41;5014427;28;20144;-59
2021/03/17 08:15:17;;;;;;;0.60;0.55;;;;;;;20.25;31.53;101213.31;5012722;28;20079;-58
2021/03/17 08:17:45;;;;;;;0.75;0.50;;;;;;;20.33;31.22;101209.63;5004117;28;20487;-59
2021/03/17 08:20:23;;;;;;;0.75;0.63;;;;;;;20.74;30.91;101225.41;5013161;28;20463;-59
2021/03/17 08:22:52;;;;;;;4.63;1.23;;;;;;;21.05;30.63;101225.22;5016430;28;20061;-58
2021/03/17 08:25:46;;;;;;;0.75;0.75;;;;;;;21.42;30.35;101212.34;5014928;28;20074;-59
2021/03/17 08:28:24;;;;;;;1.75;0.73;;;;;;;21.45;29.67;101206.00;5012127;28;20050;-58
2021/03/17 08:30:55;;;;;;;0.95;0.65;;;;;;;21.81;29.85;101212.38;5012750;28;20526;-59
2021/03/17 08:33:35;;;;;;;1.27;1.05;;;;;;;21.67;29.87;101223.97;5013285;28;20050;-58
2021/03/17 08:36:10;;;;;;;0.98;0.68;;;;;;;21.49;29.62;101217.50;5017696;28;20050;-57
2021/03/17 08:38:56;;;;;;;4.35;1.25;;;;;;;21.77;30.05;101215.06;5018682;28;20188;-58
2021/03/17 08:41:42;;;;;;;2.65;0.88;;;;;;;21.77;29.71;101220.75;5024909;28;20125;-58
2021/03/17 08:44:20;;;;;;;2.58;1.15;;;;;;;21.68;29.54;101220.81;5014623;28;20046;-58
2021/03/17 08:46:47;;;;;;;4.28;1.00;;;;;;;22.13;29.47;101208.06;5015769;28;20140;-59
2021/03/17 08:49:27;;;;;;;0.70;0.70;;;;;;;22.22;28.69;101234.44;5012963;28;20046;-59
2021/03/17 08:51:53;;;;;;;0.73;0.70;;;;;;;22.01;29.05;101218.13;5014688;28;20049;-58
2021/03/17 08:54:31;;;;;;;0.80;0.80;;;;;;;22.11;29.15;101210.41;5017465;28;20044;-59
2021/03/17 08:56:57;;;;;;;0.73;0.60;;;;;;;22.34;28.75;101225.19;5022279;28;20508;-58
2021/03/17 08:59:47;;;;;;;1.00;0.85;;;;;;;22.08;28.73;101205.38;5018766;28;20052;-58
2021/03/17 09:02:20;;;;;;;0.82;0.60;;;;;;;22.34;28.51;101213.81;5021506;28;20057;-59
2021/03/17 09:04:52;;;;;;;0.98;0.60;;;;;;;22.55;28.34;101219.53;5013335;28;20041;-59
2021/03/17 09:07:20;;;;;;;1.65;1.00;;;;;;;22.72;28.12;101205.16;5021253;28;20124;-60
2021/03/17 09:09:58;;;;;;;2.20;1.13;;;;;;;22.98;28.10;101226.94;5017518;28;20053;-59
2021/03/17 09:12:25;;;;;;;1.33;1.20;;;;;;;23.18;27.75;101220.38;5018706;28;20055;-60
2021/03/17 09:15:14;;;;;;;0.73;0.68;;;;;;;23.28;27.83;101199.13;5019926;28;20059;-59
2021/03/17 09:17:51;;;;;;;1.05;0.57;;;;;;;23.51;27.61;101225.22;5004600;28;20048;-59
2021/03/17 09:20:33;;;;;;;0.45;0.45;;;;;;;23.28;27.25;101222.78;5015686;28;20050;-60
2021/03/17 09:23:20;;;;;;;0.98;0.70;;;;;;;22.79;27.78;101213.97;5016180;28;20057;-58
2021/03/17 09:25:50;;;;;;;0.95;0.82;;;;;;;22.57;28.22;101212.31;5019177;28;20042;-59
2021/03/17 09:28:24;;;;;;;0.80;0.80;;;;;;;22.85;28.08;101221.13;5015435;28;20048;-58
2021/03/17 09:30:54;;;;;;;1.13;0.90;;;;;;;22.70;27.74;101233.13;5017959;28;20080;-59
2021/03/17 09:33:27;;;;;;;1.33;1.05;;;;;;;22.91;28.04;101216.06;5018326;28;20049;-59
2021/03/17 09:36:00;;;;;;;5.78;1.15;;;;;;;22.51;28.05;101215.72;5011480;28;20042;-60
2021/03/17 09:38:30;;;;;;;0.65;0.65;;;;;;;22.30;28.27;101224.22;5012465;28;20050;-59
2021/03/17 09:41:11;;;;;;;0.68;0.55;;;;;;;22.06;28.60;101202.06;5023237;28;20478;-59
2021/03/17 09:43:59;;;;;;;2.05;0.90;;;;;;;21.92;28.83;101190.94;5020174;28;20077;-59
2021/03/17 09:46:46;;;;;;;3.92;0.70;;;;;;;22.16;28.93;101196.03;5016047;28;20056;-59
2021/03/17 09:49:15;;;;;;;0.77;0.77;;;;;;;22.13;28.89;101208.06;5016229;28;20046;-59
2021/03/17 09:51:45;;;;;;;1.42;0.80;;;;;;;21.94;29.23;101197.09;5018427;28;20089;-62
2021/03/17 09:54:13;;;;;;;0.57;0.57;;;;;;;22.16;29.16;101208.22;5015332;28;20677;-59
2021/03/17 09:56:47;;;;;;;1.27;1.00;;;;;;;22.27;29.09;101197.28;5012882;28;20072;-59
2021/03/17 09:59:19;;;;;;;1.08;0.98;;;;;;;22.12;28.91;101203.53;5020430;28;20048;-59
2021/03/17 10:01:51;;;;;;;1.42;1.13;;;;;;;21.97;29.04;101202.09;5017595;28;20045;-58
2021/03/17 10:04:35;;;;;;;0.88;0.80;;;;;;;21.97;29.26;101193.56;5018613;28;20045;-65
2021/03/17 10:07:05;;;;;;;1.45;1.10;;;;;;;21.73;29.41;101183.66;5015286;28;20470;-65
2021/03/17 10:09:33;;;;;;;3.28;1.40;;;;;;;21.72;29.46;101192.53;5016382;28;20111;-75
2021/03/17 10:12:00;;;;;;;1.10;1.00;;;;;;;;;;5015972;28;20053;-72
2021/03/17 10:14:26;;;;;;;1.02;0.80;;;;;;;21.47;29.59;101192.28;5012526;28;20136;-68
2021/03/17 10:16:55;;;;;;;0.80;0.80;;;;;;;21.63;29.78;101203.09;5016773;28;20551;-65
2021/03/17 10:19:26;;;;;;;0.82;0.82;;;;;;;21.41;29.57;101179.44;5020006;28;20399;-64
2021/03/17 10:21:54;;;;;;;5.70;1.10;;;;;;;21.69;29.50;101193.19;5015559;28;20516;-62
2021/03/17 10:24:33;;;;;;;1.30;0.77;;;;;;;21.74;29.42;101173.97;5019321;28;20076;-62
2021/03/17 10:27:05;;;;;;;1.08;0.98;;;;;;;22.06;29.28;101208.59;5011159;28;20632;-63
2021/03/17 10:29:32;;;;;;;1.85;1.00;;;;;;;22.48;29.22;101200.97;5012502;28;20141;-63
2021/03/17 10:31:58;;;;;;;3.20;1.05;;;;;;;22.41;28.80;101191.34;5017026;28;20084;-62
2021/03/17 10:34:27;;;;;;;5.00;1.70;;;;;;;22.47;28.56;101187.94;5013866;28;20388;-65
2021/03/17 10:36:57;;;;;;;2.45;1.63;;;;;;;22.69;28.50;101194.47;5013303;28;20064;-64
2021/03/17 10:39:26;;;;;;;2.50;1.40;;;;;;;22.98;28.03;101175.66;5017509;28;20132;-64
2021/03/17 10:41:52;;;;;;;0.70;0.70;;;;;;;23.38;27.62;101210.97;5020200;28;20132;-64
2021/03/17 10:44:21;;;;;;;4.45;1.27;;;;;;;23.31;27.55;101162.22;5015987;28;20125;-62
2021/03/17 10:47:00;;;;;;;1.63;1.52;;;;;;;23.94;27.19;101178.28;5017928;28;20051;-63
2021/03/17 10:49:28;;;;;;;1.13;1.02;;;;;;;23.94;26.82;101184.81;5015354;28;20045;-63
2021/03/17 10:52:06;;;;;;;2.07;1.53;;;;;;;24.08;27.35;101167.34;5018001;28;20058;-60
2021/03/17 10:54:34;;;;;;;4.68;1.40;;;;;;;24.55;26.65;101181.09;5017922;28;20864;-60
2021/03/17 10:57:08;;;;;;;1.52;1.30;;;;;;;24.92;26.15;101180.94;5023657;28;20065;-59
2021/03/17 10:59:36;;;;;;;1.25;1.08;;;;;;;24.90;26.41;101160.50;5015380;28;20104;-57
2021/03/17 11:02:23;;;;;;;1.85;1.13;;;;;;;24.78;26.08;101161.38;5012496;28;20600;-57
2021/03/17 11:05:08;;;;;;;1.67;1.27;;;;;;;25.17;25.96;101156.00;5017113;28;20510;-59
2021/03/17 11:08:02;;;;;;;5.85;1.48;;;;;;;25.75;25.84;101154.31;5016153;28;20081;-59
2021/03/17 11:10:35;;;;;;;0.98;0.75;;;;;;;25.73;25.32;101150.97;5016690;28;20046;-59
2021/03/17 11:13:26;;;;;;;4.38;1.88;;;;;;;25.59;24.83;101162.03;5015455;28;20137;-59
2021/03/17 11:15:57;;;;;;;4.78;2.10;;;;;;;25.79;24.87;101153.56;5023481;28;20407;-58
2021/03/17 11:18:36;;;;;;;1.90;1.13;;;;;;;26.23;24.20;101157.97;5017052;28;20041;-58
2021/03/17 11:21:08;;;;;;;2.97;1.40;;;;;;;26.06;24.35;101144.06;5017469;28;20085;-59
2021/03/17 11:23:37;;;;;;;5.03;1.83;;;;;;;26.22;24.35;101149.72;5013560;28;20050;-58
2021/03/17 11:26:06;;;;;;;1.98;1.40;;;;;;;26.33;24.51;101101.34;5014435;28;20495;-59
2021/03/17 11:28:41;;;;;;;1.47;1.10;;;;;;;26.68;23.73;101142.22;5016018;28;20129;-59
2021/03/17 11:31:12;;;;;;;3.25;1.48;;;;;;;27.06;23.68;101129.06;5018418;28;20287;-59
2021/03/17 11:33:39;;;;;;;2.92;1.08;;;;;;;27.15;23.48;101143.22;5019702;28;20077;-57
2021/03/17 11:36:07;;;;;;;1.90;1.30;;;;;;;26.84;23.17;101127.84;5019659;28;20149;-57
2021/03/17 11:38:35;;;;;;;1.17;1.02;;;;;;;26.74;23.48;101144.81;5023811;28;20129;-59
2021/03/17 11:41:01;;;;;;;3.60;1.52;;;;;;;26.86;23.73;101144.63;5016750;28;20038;-58
2021/03/17 11:43:31;;;;;;;1.85;1.60;;;;;;;26.84;23.18;101127.00;5019298;28;20038;-58
2021/03/17 11:45:59;;;;;;;1.38;1.20;;;;;;;26.59;23.59;101112.13;5020895;28;20111;-59
2021/03/17 11:48:27;;;;;;;2.28;1.67;;;;;;;26.92;23.38;101128.81;5019494;28;22056;-59